createdAt,value
2023-03-18T00:01:28.240Z,46.29
2023-03-18T00:03:30.460Z,46.09
2023-03-18T00:05:32.187Z,46.10
2023-03-18T00:07:35.423Z,45.98
2023-03-18T00:09:37.425Z,45.89
2023-03-18T00:11:39.228Z,45.79
2023-03-18T00:13:41.458Z,46.44
2023-03-18T00:15:43.288Z,46.15
2023-03-18T00:17:45.692Z,46.42
2023-03-18T00:19:47.560Z,46.35
2023-03-18T00:21:49.143Z,46.26
2023-03-18T00:23:52.083Z,46.17
2023-03-18T00:25:55.523Z,46.39
2023-03-18T00:27:57.059Z,46.46
2023-03-18T00:29:58.687Z,46.61
2023-03-18T00:32:00.613Z,46.94
2023-03-18T00:34:02.277Z,46.81
2023-03-18T00:36:04.719Z,47.47
2023-03-18T00:38:06.728Z,47.68
2023-03-18T00:40:12.021Z,47.28
2023-03-18T00:42:13.597Z,47.23
2023-03-18T00:44:15.432Z,46.89
2023-03-18T00:46:19.270Z,47.82
2023-03-18T00:48:20.967Z,47.19
2023-03-18T00:50:22.509Z,46.99
2023-03-18T00:52:24.075Z,46.80
2023-03-18T00:54:25.680Z,46.66
2023-03-18T00:56:31.150Z,46.42
2023-03-18T00:58:32.731Z,46.62
2023-03-18T01:00:34.831Z,46.69
2023-03-18T01:02:36.573Z,46.22
2023-03-18T01:04:38.160Z,46.05
2023-03-18T01:06:39.716Z,46.56
2023-03-18T01:08:41.892Z,47.44
2023-03-18T01:10:43.371Z,45.96
2023-03-18T01:12:46.408Z,46.40
2023-03-18T01:14:48.194Z,46.65
2023-03-18T01:16:50.609Z,46.39
2023-03-18T01:18:52.824Z,46.33
2023-03-18T01:20:54.422Z,46.29
2023-03-18T01:22:57.926Z,46.54
2023-03-18T01:24:59.500Z,45.98
2023-03-18T01:27:01.077Z,46.08
2023-03-18T01:29:04.286Z,45.84
2023-03-18T01:31:05.847Z,45.64
2023-03-18T01:33:07.899Z,45.54
2023-03-18T01:35:10.514Z,45.63
2023-03-18T01:37:12.106Z,45.54
2023-03-18T01:39:14.610Z,45.31
2023-03-18T01:41:16.010Z,45.07
2023-03-18T01:43:20.205Z,44.95
2023-03-18T01:45:26.121Z,44.84
2023-03-18T01:47:27.725Z,44.96
2023-03-18T01:49:33.767Z,45.01
2023-03-18T01:51:36.753Z,45.23
2023-03-18T01:53:41.818Z,45.15
2023-03-18T01:55:44.958Z,45.32
2023-03-18T01:57:52.921Z,45.55
2023-03-18T01:59:56.637Z,45.81
2023-03-18T02:02:03.404Z,45.90
2023-03-18T02:04:07.347Z,45.95
2023-03-18T02:06:09.114Z,45.80
2023-03-18T02:08:10.737Z,45.79
2023-03-18T02:10:15.102Z,45.53
2023-03-18T02:12:22.478Z,45.48
2023-03-18T02:14:26.309Z,45.57
2023-03-18T02:16:32.175Z,45.02
2023-03-18T02:18:38.529Z,44.96
2023-03-18T02:20:55.034Z,44.58
2023-03-18T02:23:09.281Z,44.77
2023-03-18T02:25:21.718Z,44.65
2023-03-18T02:27:26.382Z,44.59
2023-03-18T02:29:30.783Z,45.12
2023-03-18T02:31:36.263Z,45.13
2023-03-18T02:33:40.297Z,45.14
2023-03-18T02:35:44.669Z,45.25
2023-03-18T02:37:46.390Z,45.47
2023-03-18T02:39:48.066Z,45.83
2023-03-18T02:41:49.730Z,46.30
2023-03-18T02:43:53.263Z,46.63
2023-03-18T02:46:06.177Z,46.46
2023-03-18T02:48:11.378Z,46.73
2023-03-18T02:50:13.017Z,46.93
2023-03-18T02:52:14.598Z,46.66
2023-03-18T02:54:20.785Z,46.23
2023-03-18T02:56:22.368Z,46.17
2023-03-18T02:58:23.921Z,46.24
2023-03-18T03:00:27.063Z,46.31
2023-03-18T03:02:28.713Z,46.07
2023-03-18T03:04:30.370Z,45.85
2023-03-18T03:06:32.060Z,45.87
2023-03-18T03:08:33.626Z,45.59
2023-03-18T03:10:35.279Z,45.34
2023-03-18T03:12:37.496Z,45.25
2023-03-18T03:14:39.061Z,45.04
2023-03-18T03:16:42.468Z,44.86
2023-03-18T03:18:44.348Z,44.92
2023-03-18T03:20:46.247Z,44.96
2023-03-18T03:22:51.504Z,44.78
2023-03-18T03:24:53.228Z,45.25
2023-03-18T03:26:54.782Z,45.03
2023-03-18T03:28:56.406Z,45.28
2023-03-18T03:30:58.426Z,45.48
2023-03-18T03:33:01.764Z,45.56
2023-03-18T03:35:03.729Z,45.79
2023-03-18T03:37:05.770Z,46.34
2023-03-18T03:39:07.394Z,45.72
2023-03-18T03:41:10.252Z,46.05
2023-03-18T03:43:12.861Z,45.44
2023-03-18T03:45:16.384Z,45.43
2023-03-18T03:47:17.950Z,45.46
2023-03-18T03:49:20.996Z,45.57
2023-03-18T03:51:22.670Z,45.76
2023-03-18T03:53:24.498Z,45.64
2023-03-18T03:55:26.320Z,45.64
2023-03-18T03:57:28.007Z,45.57
2023-03-18T03:59:29.744Z,45.50
2023-03-18T04:01:31.599Z,45.28
2023-03-18T04:03:33.189Z,45.47
2023-03-18T04:05:36.124Z,45.46
2023-03-18T04:07:37.833Z,45.58
2023-03-18T04:09:39.401Z,45.35
2023-03-18T04:11:40.977Z,45.17
2023-03-18T04:13:42.672Z,44.99
2023-03-18T04:15:44.283Z,45.32
2023-03-18T04:17:46.257Z,45.25
2023-03-18T04:19:48.108Z,45.09
2023-03-18T04:21:51.160Z,45.11
2023-03-18T04:23:52.687Z,45.15
2023-03-18T04:25:54.319Z,45.43
2023-03-18T04:27:56.010Z,45.40
2023-03-18T04:29:57.639Z,45.34
2023-03-18T04:31:59.294Z,45.50
2023-03-18T04:34:00.911Z,45.71
2023-03-18T04:36:02.546Z,45.88
2023-03-18T04:38:05.535Z,45.92
2023-03-18T04:40:07.976Z,46.46
2023-03-18T04:42:09.810Z,46.34
2023-03-18T04:44:11.553Z,46.59
2023-03-18T04:46:13.184Z,46.38
2023-03-18T04:48:14.816Z,46.29
2023-03-18T04:50:16.984Z,45.99
2023-03-18T04:52:18.745Z,45.63
2023-03-18T04:54:21.919Z,45.62
2023-03-18T04:56:23.692Z,45.13
2023-03-18T04:58:25.260Z,45.09
2023-03-18T05:00:27.024Z,45.29
2023-03-18T05:02:28.602Z,44.97
2023-03-18T05:04:30.520Z,45.19
2023-03-18T05:06:32.547Z,45.13
2023-03-18T05:08:34.122Z,44.94
2023-03-18T05:10:37.217Z,44.45
2023-03-18T05:12:39.014Z,44.39
2023-03-18T05:14:41.091Z,44.07
2023-03-18T05:16:42.760Z,44.15
2023-03-18T05:18:44.569Z,44.16
2023-03-18T05:20:46.154Z,43.94
2023-03-18T05:22:47.708Z,44.19
2023-03-18T05:24:49.736Z,44.15
2023-03-18T05:26:52.675Z,44.26
2023-03-18T05:28:54.536Z,44.12
2023-03-18T05:30:56.064Z,44.66
2023-03-18T05:32:57.648Z,44.42
2023-03-18T05:34:59.186Z,44.24
2023-03-18T05:37:00.687Z,44.02
2023-03-18T05:39:02.334Z,44.01
2023-03-18T05:41:04.261Z,44.03
2023-03-18T05:43:07.381Z,44.05
2023-03-18T05:45:09.577Z,44.26
2023-03-18T05:47:11.586Z,43.88
2023-03-18T05:49:13.101Z,43.71
2023-03-18T05:51:14.738Z,43.32
2023-03-18T05:53:18.162Z,43.29
2023-03-18T05:55:19.944Z,43.38
2023-03-18T05:57:21.579Z,43.31
2023-03-18T05:59:24.576Z,43.12
2023-03-18T06:01:26.226Z,43.41
2023-03-18T06:03:27.963Z,43.33
2023-03-18T06:05:30.007Z,43.39
2023-03-18T06:07:31.838Z,43.19
2023-03-18T06:09:33.567Z,43.15
2023-03-18T06:11:35.616Z,43.45
2023-03-18T06:13:37.184Z,43.26
2023-03-18T06:15:40.401Z,42.96
2023-03-18T06:17:42.313Z,43.02
2023-03-18T06:19:43.838Z,43.24
2023-03-18T06:21:45.407Z,42.94
2023-03-18T06:23:46.940Z,42.97
2023-03-18T06:25:48.547Z,42.79
2023-03-18T06:27:50.332Z,42.75
2023-03-18T06:29:51.972Z,42.75
2023-03-18T06:31:55.019Z,42.78
2023-03-18T06:33:56.721Z,42.70
2023-03-18T06:35:58.520Z,43.40
2023-03-18T06:38:00.251Z,43.81
2023-03-18T06:40:01.941Z,44.22
2023-03-18T06:42:05.764Z,44.28
2023-03-18T06:44:07.346Z,44.55
2023-03-18T06:46:08.974Z,44.44
2023-03-18T06:48:11.949Z,44.47
2023-03-18T06:50:13.584Z,43.51
2023-03-18T06:52:15.448Z,43.24
2023-03-18T06:54:16.977Z,43.52
2023-03-18T06:56:18.541Z,43.16
2023-03-18T06:58:20.168Z,43.21
2023-03-18T07:00:22.296Z,43.19
2023-03-18T07:02:24.273Z,43.00
2023-03-18T07:04:27.552Z,42.75
2023-03-18T07:06:29.657Z,43.30
2023-03-18T07:08:31.204Z,43.35
2023-03-18T07:10:32.833Z,43.45
2023-03-18T07:12:34.420Z,43.13
2023-03-18T07:14:36.068Z,42.47
2023-03-18T07:16:37.693Z,43.40
2023-03-18T07:18:39.277Z,42.51
2023-03-18T07:20:42.215Z,42.22
2023-03-18T07:22:45.034Z,42.25
2023-03-18T07:24:46.775Z,41.43
2023-03-18T07:26:48.869Z,40.86
2023-03-18T07:28:50.508Z,40.88
2023-03-18T07:30:54.150Z,41.84
2023-03-18T07:32:55.979Z,40.74
2023-03-18T07:34:57.675Z,40.46
2023-03-18T07:37:00.616Z,40.33
2023-03-18T07:39:02.210Z,40.34
2023-03-18T07:41:03.961Z,40.97
2023-03-18T07:43:05.991Z,40.82
2023-03-18T07:45:09.360Z,40.22
2023-03-18T07:47:11.142Z,39.60
2023-03-18T07:49:12.715Z,39.15
2023-03-18T07:51:14.348Z,39.24
2023-03-18T07:53:17.498Z,38.85
2023-03-18T07:55:19.022Z,39.37
2023-03-18T07:57:20.809Z,38.73
2023-03-18T07:59:22.502Z,38.80
2023-03-18T08:01:24.147Z,38.67
2023-03-18T08:03:25.954Z,37.65
2023-03-18T08:05:27.587Z,37.78
2023-03-18T08:07:29.214Z,38.06
2023-03-18T08:09:32.225Z,36.69
2023-03-18T08:11:33.882Z,36.56
2023-03-18T08:13:37.724Z,38.00
2023-03-18T08:15:39.663Z,37.84
2023-03-18T08:17:43.328Z,36.18
2023-03-18T08:19:50.830Z,36.81
2023-03-18T08:21:52.451Z,37.13
2023-03-18T08:23:54.147Z,37.06
2023-03-18T08:25:57.099Z,36.44
2023-03-18T08:27:58.690Z,36.62
2023-03-18T08:30:02.966Z,37.70
2023-03-18T08:32:05.909Z,36.81
2023-03-18T08:34:07.498Z,36.45
2023-03-18T08:36:09.340Z,36.42
2023-03-18T08:38:11.011Z,37.53
2023-03-18T08:40:13.287Z,37.12
2023-03-18T08:42:16.208Z,35.03
2023-03-18T08:44:30.107Z,35.99
2023-03-18T08:46:31.862Z,36.11
2023-03-18T08:48:33.439Z,34.01
2023-03-18T08:50:35.935Z,34.43
2023-03-18T08:52:37.499Z,34.43
2023-03-18T08:54:39.179Z,33.21
2023-03-18T08:56:40.747Z,33.64
2023-03-18T08:58:46.507Z,33.62
2023-03-18T09:00:51.024Z,34.31
2023-03-18T09:02:52.801Z,33.97
2023-03-18T09:04:54.708Z,33.59
2023-03-18T09:06:56.426Z,34.21
2023-03-18T09:08:58.339Z,34.22
2023-03-18T09:11:00.040Z,34.60
2023-03-18T09:13:01.629Z,35.34
2023-03-18T09:15:05.680Z,36.05
2023-03-18T09:17:07.250Z,35.62
2023-03-18T09:19:08.808Z,34.88
2023-03-18T09:21:10.363Z,34.73
2023-03-18T09:23:13.935Z,34.11
2023-03-18T09:25:15.545Z,33.90
2023-03-18T09:27:17.139Z,33.08
2023-03-18T09:29:18.702Z,31.41
2023-03-18T09:31:21.887Z,30.09
2023-03-18T09:33:23.866Z,29.72
2023-03-18T09:35:25.656Z,31.05
2023-03-18T09:37:27.264Z,29.61
2023-03-18T09:39:28.809Z,30.26
2023-03-18T09:41:46.330Z,30.06
2023-03-18T09:44:01.137Z,30.06
2023-03-18T09:46:09.940Z,29.59
2023-03-18T09:48:40.603Z,29.89
2023-03-18T09:50:51.514Z,28.98
2023-03-18T09:53:05.340Z,29.55
2023-03-18T09:55:18.656Z,28.20
2023-03-18T09:57:28.675Z,29.00
2023-03-18T09:59:37.715Z,28.28
2023-03-18T10:01:41.168Z,28.84
2023-03-18T10:03:48.634Z,28.71
2023-03-18T10:06:00.630Z,29.59
2023-03-18T10:08:08.818Z,29.10
2023-03-18T10:10:19.698Z,29.18
2023-03-18T10:12:29.562Z,29.18
2023-03-18T10:14:37.277Z,29.29
2023-03-18T10:16:48.887Z,28.87
2023-03-18T10:18:51.922Z,28.84
2023-03-18T10:21:05.037Z,29.26
2023-03-18T10:23:21.103Z,27.88
2023-03-18T10:25:28.396Z,28.50
2023-03-18T10:27:42.239Z,27.62
2023-03-18T10:29:49.485Z,27.46
2023-03-18T10:32:05.685Z,28.43
2023-03-18T10:34:11.595Z,28.93
2023-03-18T10:36:19.224Z,28.97
2023-03-18T10:38:24.796Z,29.31
2023-03-18T10:40:29.258Z,27.76
2023-03-18T10:42:32.898Z,28.07
2023-03-18T10:44:38.436Z,27.32
2023-03-18T10:46:41.862Z,28.40
2023-03-18T10:48:46.727Z,27.25
2023-03-18T10:50:56.510Z,27.14
2023-03-18T10:53:04.867Z,27.39
2023-03-18T10:55:15.785Z,26.66
2023-03-18T10:57:18.477Z,26.13
2023-03-18T10:59:23.151Z,27.08
2023-03-18T11:01:27.884Z,26.42
2023-03-18T11:03:34.044Z,25.25
2023-03-18T11:05:37.232Z,25.84
2023-03-18T11:07:58.503Z,22.81
2023-03-18T11:10:13.596Z,22.80
2023-03-18T11:12:18.962Z,23.85
2023-03-18T11:14:22.375Z,22.51
2023-03-18T11:16:28.916Z,21.80
2023-03-18T11:18:30.767Z,21.62
2023-03-18T11:20:35.434Z,22.17
2023-03-18T11:22:37.930Z,20.51
2023-03-18T11:24:40.951Z,22.13
2023-03-18T11:26:53.944Z,20.00
2023-03-18T11:28:57.243Z,19.57
2023-03-18T11:31:05.850Z,20.02
2023-03-18T11:33:15.327Z,19.69
2023-03-18T11:35:20.339Z,19.83
2023-03-18T11:37:23.800Z,19.32
2023-03-18T11:39:29.418Z,19.41
2023-03-18T11:41:32.329Z,19.88
2023-03-18T11:43:34.515Z,20.10
2023-03-18T11:45:47.461Z,19.56
2023-03-18T11:47:49.133Z,18.95
2023-03-18T11:49:50.790Z,19.88
2023-03-18T11:51:58.301Z,19.40
2023-03-18T11:54:12.062Z,18.17
2023-03-18T11:56:20.670Z,18.53
2023-03-18T11:58:49.967Z,19.39
2023-03-18T12:00:58.386Z,17.57
2023-03-18T12:03:47.495Z,17.95
2023-03-18T12:06:08.320Z,18.24
2023-03-18T12:08:17.091Z,18.04
2023-03-18T12:10:24.773Z,18.64
2023-03-18T12:12:44.274Z,17.95
2023-03-18T12:14:53.498Z,17.09
2023-03-18T12:17:05.289Z,17.09
2023-03-18T12:19:36.686Z,18.72
2023-03-18T12:21:52.992Z,18.85
2023-03-18T12:24:11.509Z,18.37
2023-03-18T12:26:19.537Z,17.58
2023-03-18T12:28:31.949Z,18.95
2023-03-18T12:31:00.642Z,18.78
2023-03-18T12:33:09.141Z,20.19
2023-03-18T12:35:28.577Z,19.46
2023-03-18T12:37:41.599Z,19.12
2023-03-18T12:39:58.719Z,19.42
2023-03-18T12:42:03.230Z,20.18
2023-03-18T12:44:23.769Z,20.17
2023-03-18T12:46:31.955Z,21.42
2023-03-18T12:48:44.005Z,21.22
2023-03-18T12:51:00.586Z,22.09
2023-03-18T12:53:05.087Z,22.88
2023-03-18T12:55:15.291Z,23.22
2023-03-18T12:57:26.316Z,21.99
2023-03-18T12:59:34.127Z,22.66
2023-03-18T13:01:43.707Z,23.28
2023-03-18T13:03:51.429Z,23.36
2023-03-18T13:05:55.973Z,24.00
2023-03-18T13:08:22.233Z,24.01
2023-03-18T13:10:24.884Z,23.93
2023-03-18T13:12:30.720Z,24.59
2023-03-18T13:14:43.281Z,23.47
2023-03-18T13:16:47.549Z,24.83
2023-03-18T13:18:52.325Z,24.46
2023-03-18T13:20:57.561Z,25.56
2023-03-18T13:23:14.342Z,29.03
2023-03-18T13:25:27.580Z,25.74
2023-03-18T13:27:49.332Z,27.27
2023-03-18T13:29:57.536Z,24.73
2023-03-18T13:32:12.759Z,24.13
2023-03-18T13:34:37.077Z,23.26
2023-03-18T13:37:07.921Z,24.19
2023-03-18T13:39:22.384Z,25.20
2023-03-18T13:42:05.451Z,24.18
2023-03-18T13:44:14.371Z,24.06
2023-03-18T13:46:23.469Z,28.49
2023-03-18T13:48:30.790Z,25.14
2023-03-18T13:50:35.479Z,24.69
2023-03-18T13:52:42.031Z,24.80
2023-03-18T13:54:43.646Z,25.07
2023-03-18T13:56:49.552Z,25.59
2023-03-18T13:58:51.343Z,25.55
2023-03-18T14:01:27.079Z,24.19
2023-03-18T14:03:31.234Z,24.21
2023-03-18T14:05:38.547Z,25.61
2023-03-18T14:07:47.280Z,25.25
2023-03-18T14:09:54.872Z,24.83
2023-03-18T14:12:04.766Z,25.88
2023-03-18T14:14:27.923Z,25.81
2023-03-18T14:16:51.622Z,24.59
2023-03-18T14:18:57.395Z,25.28
2023-03-18T14:21:03.773Z,25.90
2023-03-18T14:23:28.160Z,25.81
2023-03-18T14:25:43.057Z,25.49
2023-03-18T14:27:47.261Z,25.47
2023-03-18T14:29:48.949Z,25.10
2023-03-18T14:31:56.934Z,26.79
2023-03-18T14:34:32.217Z,26.04
2023-03-18T14:36:48.975Z,27.40
2023-03-18T14:38:58.975Z,25.99
2023-03-18T14:41:04.042Z,27.65
2023-03-18T14:43:10.944Z,27.24
2023-03-18T14:45:18.646Z,27.36
2023-03-18T14:47:38.336Z,25.37
2023-03-18T14:49:44.649Z,25.34
2023-03-18T14:51:47.413Z,26.66
2023-03-18T14:53:53.284Z,25.76
2023-03-18T14:55:57.030Z,25.83
2023-03-18T14:57:58.966Z,25.52
2023-03-18T15:00:01.716Z,25.62
2023-03-18T15:02:09.485Z,25.80
2023-03-18T15:04:18.652Z,26.52
2023-03-18T15:06:22.058Z,25.36
2023-03-18T15:08:37.454Z,24.52
2023-03-18T15:10:42.990Z,24.88
2023-03-18T15:12:44.562Z,24.54
2023-03-18T15:14:46.205Z,26.68
2023-03-18T15:16:52.248Z,27.49
2023-03-18T15:18:55.603Z,26.22
2023-03-18T15:21:03.035Z,26.25
2023-03-18T15:23:07.808Z,27.12
2023-03-18T15:25:17.537Z,26.42
2023-03-18T15:27:19.733Z,26.95
2023-03-18T15:29:28.192Z,26.84
2023-03-18T15:31:31.865Z,26.22
2023-03-18T15:33:36.214Z,26.44
2023-03-18T15:35:37.862Z,26.13
2023-03-18T15:37:41.749Z,28.04
2023-03-18T15:39:43.386Z,26.39
2023-03-18T15:41:45.177Z,27.04
2023-03-18T15:43:48.880Z,26.60
2023-03-18T15:45:55.542Z,26.74
2023-03-18T15:47:57.815Z,26.53
2023-03-18T15:50:01.720Z,28.01
2023-03-18T15:52:07.898Z,26.55
2023-03-18T15:54:16.601Z,27.68
2023-03-18T15:56:23.737Z,27.08
2023-03-18T15:58:27.456Z,27.26
2023-03-18T16:00:31.409Z,27.76
2023-03-18T16:02:33.776Z,27.22
2023-03-18T16:04:35.435Z,28.16
2023-03-18T16:06:37.082Z,28.14
2023-03-18T16:08:38.678Z,27.86
2023-03-18T16:10:41.744Z,27.47
2023-03-18T16:12:43.408Z,28.01
2023-03-18T16:14:47.310Z,28.72
2023-03-18T16:16:49.346Z,26.78
2023-03-18T16:18:51.002Z,27.44
2023-03-18T16:20:52.853Z,26.47
2023-03-18T16:22:55.553Z,26.37
2023-03-18T16:24:57.338Z,26.13
2023-03-18T16:27:00.637Z,26.16
2023-03-18T16:29:02.227Z,26.19
2023-03-18T16:31:04.074Z,28.04
2023-03-18T16:33:12.056Z,26.34
2023-03-18T16:35:14.463Z,26.28
2023-03-18T16:37:21.171Z,25.92
2023-03-18T16:39:25.099Z,26.24
2023-03-18T16:41:26.680Z,26.96
2023-03-18T16:43:32.151Z,26.83
2023-03-18T16:45:34.112Z,27.01
2023-03-18T16:47:35.902Z,26.87
2023-03-18T16:49:37.622Z,26.89
2023-03-18T16:51:39.166Z,27.01
2023-03-18T16:53:40.747Z,27.23
2023-03-18T16:55:42.617Z,27.02
2023-03-18T16:57:48.645Z,26.86
2023-03-18T16:59:54.257Z,26.88
2023-03-18T17:01:56.304Z,26.68
2023-03-18T17:03:57.906Z,26.65
2023-03-18T17:05:59.733Z,26.63
2023-03-18T17:08:01.348Z,26.96
2023-03-18T17:10:03.343Z,26.97
2023-03-18T17:12:06.801Z,27.02
2023-03-18T17:14:25.903Z,26.90
2023-03-18T17:16:29.410Z,27.06
2023-03-18T17:18:31.059Z,26.76
2023-03-18T17:20:33.184Z,27.24
2023-03-18T17:22:34.759Z,27.44
2023-03-18T17:24:36.272Z,27.60
2023-03-18T17:26:37.891Z,27.97
2023-03-18T17:28:42.260Z,28.13
2023-03-18T17:30:44.158Z,28.23
2023-03-18T17:32:48.089Z,28.35
2023-03-18T17:34:51.382Z,28.29
2023-03-18T17:36:53.109Z,28.45
2023-03-18T17:38:54.671Z,28.45
2023-03-18T17:40:56.548Z,28.67
2023-03-18T17:42:58.120Z,28.65
2023-03-18T17:45:05.214Z,29.26
2023-03-18T17:47:08.861Z,29.30
2023-03-18T17:49:11.820Z,29.31
2023-03-18T17:51:15.770Z,29.60
2023-03-18T17:53:24.463Z,29.72
2023-03-18T17:55:25.985Z,31.64
2023-03-18T17:57:27.613Z,30.15
2023-03-18T17:59:29.234Z,30.45
2023-03-18T18:01:31.044Z,31.14
2023-03-18T18:03:34.285Z,31.44
2023-03-18T18:05:37.134Z,31.44
2023-03-18T18:07:45.068Z,31.75
2023-03-18T18:09:46.847Z,31.87
2023-03-18T18:11:49.156Z,31.77
2023-03-18T18:13:53.197Z,31.76
2023-03-18T18:15:54.786Z,32.09
2023-03-18T18:17:56.720Z,32.27
2023-03-18T18:19:58.313Z,31.58
2023-03-18T18:22:01.300Z,32.02
2023-03-18T18:24:03.187Z,32.16
2023-03-18T18:26:06.728Z,32.05
2023-03-18T18:28:17.241Z,32.16
2023-03-18T18:30:21.617Z,32.35
2023-03-18T18:32:23.171Z,32.33
2023-03-18T18:34:25.066Z,32.36
2023-03-18T18:36:26.647Z,32.22
2023-03-18T18:38:30.038Z,32.66
2023-03-18T18:40:31.674Z,32.34
2023-03-18T18:42:33.265Z,32.84
2023-03-18T18:44:34.868Z,33.70
2023-03-18T18:46:36.569Z,34.01
2023-03-18T18:48:38.953Z,34.09
2023-03-18T18:50:40.984Z,33.34
2023-03-18T18:52:42.604Z,33.45
2023-03-18T18:54:45.634Z,34.39
2023-03-18T18:56:50.958Z,34.30
2023-03-18T18:58:52.953Z,32.80
2023-03-18T19:00:55.257Z,34.56
2023-03-18T19:02:56.818Z,34.66
2023-03-18T19:04:58.791Z,33.55
2023-03-18T19:07:05.062Z,34.12
2023-03-18T19:09:16.045Z,34.37
2023-03-18T19:11:19.054Z,33.88
2023-03-18T19:13:21.017Z,33.91
2023-03-18T19:15:22.657Z,33.49
2023-03-18T19:17:24.539Z,33.24
2023-03-18T19:19:28.454Z,33.72
2023-03-18T19:21:30.066Z,33.64
2023-03-18T19:23:34.434Z,33.55
2023-03-18T19:25:36.295Z,35.13
2023-03-18T19:27:39.300Z,33.64
2023-03-18T19:29:41.131Z,33.59
2023-03-18T19:31:42.745Z,33.80
2023-03-18T19:33:47.195Z,33.74
2023-03-18T19:35:48.869Z,33.65
2023-03-18T19:37:50.460Z,34.39
2023-03-18T19:39:52.083Z,34.03
2023-03-18T19:41:53.747Z,33.94
2023-03-18T19:44:00.730Z,34.04
2023-03-18T19:46:02.452Z,34.13
2023-03-18T19:48:04.486Z,34.25
2023-03-18T19:50:14.293Z,34.59
2023-03-18T19:52:18.485Z,34.25
2023-03-18T19:54:27.458Z,34.46
2023-03-18T19:56:29.552Z,34.69
2023-03-18T19:58:31.730Z,34.53
2023-03-18T20:00:34.744Z,34.56
2023-03-18T20:02:36.359Z,34.72
2023-03-18T20:04:38.057Z,34.52
2023-03-18T20:06:39.789Z,34.83
2023-03-18T20:08:41.382Z,34.69
2023-03-18T20:10:43.520Z,34.54
2023-03-18T20:12:47.349Z,34.36
2023-03-18T20:14:49.458Z,34.09
2023-03-18T20:16:52.706Z,34.28
2023-03-18T20:18:54.384Z,34.42
2023-03-18T20:20:56.003Z,35.09
2023-03-18T20:22:59.819Z,34.23
2023-03-18T20:25:02.746Z,35.70
2023-03-18T20:27:11.450Z,35.52
2023-03-18T20:29:17.581Z,35.94
2023-03-18T20:31:19.226Z,34.65
2023-03-18T20:33:23.163Z,34.52
2023-03-18T20:35:27.415Z,34.26
2023-03-18T20:37:35.594Z,34.41
2023-03-18T20:39:37.241Z,34.57
2023-03-18T20:41:38.972Z,34.73
2023-03-18T20:43:40.614Z,34.62
2023-03-18T20:45:42.495Z,34.66
2023-03-18T20:47:44.806Z,34.61
2023-03-18T20:49:47.776Z,34.70
2023-03-18T20:51:52.532Z,35.08
2023-03-18T20:53:54.149Z,35.55
2023-03-18T20:55:55.995Z,37.52
2023-03-18T20:57:58.396Z,37.97
2023-03-18T21:00:00.031Z,38.00
2023-03-18T21:02:01.646Z,36.54
2023-03-18T21:04:03.611Z,36.03
2023-03-18T21:06:06.931Z,36.67
2023-03-18T21:08:10.039Z,36.98
2023-03-18T21:10:16.415Z,37.59
2023-03-18T21:12:19.836Z,37.16
2023-03-18T21:14:21.538Z,37.95
2023-03-18T21:16:23.236Z,37.86
2023-03-18T21:18:25.505Z,36.23
2023-03-18T21:20:29.039Z,36.39
2023-03-18T21:22:32.035Z,36.91
2023-03-18T21:24:33.562Z,36.86
2023-03-18T21:26:35.215Z,36.48
2023-03-18T21:28:36.781Z,37.75
2023-03-18T21:30:38.415Z,37.19
2023-03-18T21:32:40.137Z,36.80
2023-03-18T21:34:41.728Z,36.50
2023-03-18T21:36:43.262Z,36.56
2023-03-18T21:38:46.399Z,36.51
2023-03-18T21:40:47.947Z,36.25
2023-03-18T21:42:50.316Z,36.09
2023-03-18T21:44:52.556Z,37.45
2023-03-18T21:46:54.121Z,37.93
2023-03-18T21:48:55.707Z,37.33
2023-03-18T21:50:58.165Z,37.32
2023-03-18T21:52:59.803Z,37.88
2023-03-18T21:55:05.013Z,38.90
2023-03-18T21:57:14.141Z,38.60
2023-03-18T21:59:15.730Z,37.76
2023-03-18T22:01:20.917Z,38.33
2023-03-18T22:03:24.016Z,37.63
2023-03-18T22:05:25.539Z,38.50
2023-03-18T22:07:29.193Z,38.87
2023-03-18T22:09:30.770Z,38.44
2023-03-18T22:11:33.661Z,36.99
2023-03-18T22:13:35.355Z,37.68
2023-03-18T22:15:39.210Z,38.41
2023-03-18T22:17:40.892Z,37.40
2023-03-18T22:19:42.434Z,37.69
2023-03-18T22:21:44.084Z,38.57
2023-03-18T22:23:45.677Z,40.49
2023-03-18T22:25:49.237Z,40.59
2023-03-18T22:27:52.244Z,40.39
2023-03-18T22:29:57.218Z,40.96
2023-03-18T22:31:58.853Z,39.03
2023-03-18T22:34:00.564Z,40.75
2023-03-18T22:36:02.265Z,40.29
2023-03-18T22:38:03.822Z,39.93
2023-03-18T22:40:06.758Z,40.28
2023-03-18T22:42:14.023Z,39.85
2023-03-18T22:44:22.551Z,39.82
2023-03-18T22:46:24.189Z,39.50
2023-03-18T22:48:28.608Z,40.36
2023-03-18T22:50:32.547Z,41.32
2023-03-18T22:52:34.228Z,39.43
2023-03-18T22:54:36.419Z,39.95
2023-03-18T22:56:38.042Z,39.71
2023-03-18T22:58:39.919Z,39.79
2023-03-18T23:00:44.149Z,39.66
2023-03-18T23:02:45.826Z,39.68
2023-03-18T23:04:49.437Z,39.84
2023-03-18T23:06:51.055Z,39.88
2023-03-18T23:08:52.749Z,40.45
2023-03-18T23:10:56.096Z,39.75
2023-03-18T23:12:57.772Z,40.13
2023-03-18T23:14:59.376Z,40.08
2023-03-18T23:17:02.364Z,40.13
2023-03-18T23:19:03.915Z,40.25
2023-03-18T23:21:05.913Z,40.22
2023-03-18T23:23:07.849Z,39.99
2023-03-18T23:25:13.981Z,40.08
2023-03-18T23:27:15.535Z,39.80
2023-03-18T23:29:17.240Z,39.75
2023-03-18T23:31:18.851Z,39.86
2023-03-18T23:33:21.816Z,40.15
2023-03-18T23:35:23.860Z,40.07
2023-03-18T23:37:25.408Z,40.23
2023-03-18T23:39:27.033Z,40.19
2023-03-18T23:41:28.654Z,40.13
2023-03-18T23:43:30.205Z,39.95
2023-03-18T23:45:32.242Z,39.66
2023-03-18T23:47:34.214Z,39.59
2023-03-18T23:49:37.628Z,39.38
2023-03-18T23:51:39.302Z,39.59
2023-03-18T23:53:40.894Z,39.29
2023-03-18T23:55:42.438Z,39.65
2023-03-18T23:57:44.091Z,39.64
2023-03-18T23:59:45.706Z,39.51
